Terminal Aerodrome Forecast
Issued by NWS

Home | Current Version | Previous Version | Text Only | Print | Product List | Glossary On
Versions: 1 2 3 4 5 6 7 8 9 10 11 12 13 14 15 16 17 18 19 20 21 22 23 24
000
FTUS45 KREV 292300
TAFTRK
TAF
KTRK 292325Z 3000/3024 25010KT P6SM SCT120 BKN150
     FM300300 VRB03KT P6SM BKN140
     FM301900 23014G24KT P6SM SCT250
      AMD NOT SKED 3002/3012=

USA.gov is the U.S. government's official web portal to all federal, state and local government web resources and services.